createdAt,value
2023-05-13T00:03:53.591Z,1.05
2023-05-13T00:08:57.177Z,1.05
2023-05-13T00:14:00.341Z,0.90
2023-05-13T00:19:03.973Z,1.00
2023-05-13T00:24:08.197Z,0.77
2023-05-13T00:29:12.382Z,0.60
2023-05-13T00:34:15.577Z,0.80
2023-05-13T00:39:19.001Z,0.80
2023-05-13T00:44:23.049Z,1.10
2023-05-13T00:49:26.599Z,0.95
2023-05-13T00:54:30.331Z,0.80
2023-05-13T00:59:34.130Z,0.85
2023-05-13T01:04:46.796Z,0.93
2023-05-13T01:10:09.052Z,1.20
2023-05-13T01:15:26.296Z,1.10
2023-05-13T01:20:32.148Z,1.17
2023-05-13T01:25:36.409Z,1.17
2023-05-13T01:30:40.165Z,1.40
2023-05-13T01:35:48.224Z,1.15
2023-05-13T01:40:55.181Z,0.90
2023-05-13T01:46:00.799Z,1.08
2023-05-13T01:51:04.972Z,0.55
2023-05-13T01:56:12.219Z,0.70
2023-05-13T02:01:16.680Z,0.70
2023-05-13T02:06:19.938Z,0.50
2023-05-13T02:11:24.140Z,0.63
2023-05-13T02:16:27.645Z,0.80
2023-05-13T02:21:31.738Z,0.90
2023-05-13T02:26:35.375Z,1.63
2023-05-13T02:31:39.095Z,0.35
2023-05-13T02:36:42.976Z,0.57
2023-05-13T02:41:47.470Z,0.77
2023-05-13T02:46:51.956Z,0.60
2023-05-13T02:51:57.645Z,0.50
2023-05-13T02:57:08.482Z,0.52
2023-05-13T03:02:11.915Z,0.70
2023-05-13T03:07:15.748Z,0.60
2023-05-13T03:12:19.512Z,0.52
2023-05-13T03:17:25.166Z,0.57
2023-05-13T03:22:28.688Z,0.63
2023-05-13T03:27:32.292Z,1.00
2023-05-13T03:32:36.865Z,0.60
2023-05-13T03:37:41.156Z,0.70
2023-05-13T03:42:45.648Z,0.80
2023-05-13T03:47:51.103Z,0.85
2023-05-13T03:52:57.246Z,0.90
2023-05-13T03:58:00.863Z,1.05
2023-05-13T04:03:04.872Z,0.90
2023-05-13T04:08:09.036Z,1.30
2023-05-13T04:13:14.928Z,1.80
2023-05-13T04:18:20.247Z,1.65
2023-05-13T04:23:24.029Z,1.30
2023-05-13T04:28:27.848Z,1.73
2023-05-13T04:33:31.033Z,1.77
2023-05-13T04:38:35.157Z,1.73
2023-05-13T04:43:39.390Z,1.70
2023-05-13T04:48:43.298Z,1.48
2023-05-13T04:53:47.957Z,1.63
2023-05-13T04:58:51.502Z,1.30
2023-05-13T05:03:56.128Z,1.50
2023-05-13T05:08:59.955Z,1.83
2023-05-13T05:14:03.712Z,2.33
2023-05-13T05:19:07.800Z,2.75
2023-05-13T05:24:12.396Z,3.20
2023-05-13T05:29:16.376Z,4.63
2023-05-13T05:34:20.840Z,5.20
2023-05-13T05:39:25.476Z,4.63
2023-05-13T05:44:29.280Z,4.82
2023-05-13T05:49:34.519Z,3.55
2023-05-13T05:54:38.582Z,3.58
2023-05-13T05:59:42.764Z,3.30
2023-05-13T06:04:46.901Z,4.10
2023-05-13T06:09:50.606Z,3.55
2023-05-13T06:14:55.067Z,3.70
2023-05-13T06:19:59.117Z,4.30
2023-05-13T06:25:02.944Z,2.85
2023-05-13T06:30:07.369Z,2.72
2023-05-13T06:35:10.799Z,2.25
2023-05-13T06:40:14.940Z,2.78
2023-05-13T06:45:23.686Z,2.63
2023-05-13T06:50:27.693Z,3.70
2023-05-13T06:55:31.169Z,2.70
2023-05-13T07:00:38.435Z,2.50
2023-05-13T07:05:42.865Z,2.55
2023-05-13T07:10:47.071Z,2.45
2023-05-13T07:15:51.013Z,3.22
2023-05-13T07:20:54.955Z,4.78
2023-05-13T07:25:58.796Z,5.55
2023-05-13T07:31:02.551Z,5.82
2023-05-13T07:36:06.900Z,5.43
2023-05-13T07:41:11.199Z,5.93
2023-05-13T07:46:15.221Z,5.10
2023-05-13T07:51:18.710Z,3.97
2023-05-13T07:56:22.282Z,3.85
2023-05-13T08:01:26.193Z,3.78
2023-05-13T08:06:29.481Z,4.13
2023-05-13T08:11:33.087Z,4.57
2023-05-13T08:16:36.695Z,4.93
2023-05-13T08:21:40.256Z,5.47
2023-05-13T08:26:43.844Z,5.88
2023-05-13T08:31:47.971Z,5.43
2023-05-13T08:36:51.578Z,5.88
2023-05-13T08:41:58.261Z,5.13
2023-05-13T08:47:24.557Z,4.72
2023-05-13T08:52:28.591Z,4.10
2023-05-13T08:57:31.700Z,4.90
2023-05-13T09:02:35.446Z,4.57
2023-05-13T09:07:40.347Z,4.18
2023-05-13T09:12:49.602Z,3.10
2023-05-13T09:17:56.179Z,3.45
2023-05-13T09:23:09.078Z,3.05
2023-05-13T09:28:15.728Z,3.25
2023-05-13T09:33:20.514Z,3.40
2023-05-13T09:38:29.811Z,3.50
2023-05-13T09:43:33.781Z,3.10
2023-05-13T09:48:38.578Z,2.67
2023-05-13T09:53:42.277Z,3.50
2023-05-13T09:58:53.250Z,3.90
2023-05-13T10:03:59.795Z,3.25
2023-05-13T10:09:05.279Z,3.25
2023-05-13T10:14:09.455Z,3.08
2023-05-13T10:19:13.840Z,3.25
2023-05-13T10:24:17.193Z,2.45
2023-05-13T10:29:23.837Z,2.38
2023-05-13T10:39:50.808Z,2.47
2023-05-13T10:44:59.177Z,2.38
2023-05-13T10:50:31.419Z,2.80
2023-05-13T10:55:41.621Z,2.95
2023-05-13T11:00:48.706Z,3.53
2023-05-13T11:06:16.172Z,4.18
2023-05-13T11:11:28.537Z,4.45
2023-05-13T11:16:34.308Z,4.88
2023-05-13T11:21:40.446Z,5.07
2023-05-13T11:26:54.560Z,2.40
2023-05-13T11:32:06.807Z,2.30
2023-05-13T11:37:12.317Z,2.25
2023-05-13T11:42:18.552Z,2.00
2023-05-13T11:52:41.583Z,2.33
2023-05-13T11:57:50.905Z,1.95
2023-05-13T12:02:57.070Z,2.00
2023-05-13T12:08:03.219Z,1.80
2023-05-13T12:13:09.860Z,2.10
2023-05-13T12:18:16.938Z,1.67
2023-05-13T12:23:23.424Z,1.80
2023-05-13T12:28:30.947Z,2.08
2023-05-13T12:39:02.473Z,1.63
2023-05-13T12:44:10.023Z,2.15
2023-05-13T12:49:16.038Z,1.70
2023-05-13T12:54:19.410Z,2.00
2023-05-13T12:59:23.311Z,1.20
2023-05-13T13:04:26.989Z,1.98
2023-05-13T13:09:30.649Z,1.90
2023-05-13T13:14:33.991Z,1.65
2023-05-13T13:19:37.695Z,1.23
2023-05-13T13:24:41.496Z,1.80
2023-05-13T13:29:45.945Z,1.85
2023-05-13T13:34:49.458Z,1.48
2023-05-13T13:39:52.597Z,1.52
2023-05-13T13:44:56.863Z,1.70
2023-05-13T13:50:00.560Z,1.30
2023-05-13T13:55:04.000Z,2.00
2023-05-13T14:00:08.588Z,1.90
2023-05-13T14:05:13.554Z,2.60
2023-05-13T14:10:16.787Z,1.90
2023-05-13T14:15:20.564Z,1.20
2023-05-13T14:20:25.372Z,1.80
2023-05-13T14:25:28.923Z,2.97
2023-05-13T14:30:32.637Z,2.40
2023-05-13T14:35:36.301Z,10.48
2023-05-13T14:40:40.138Z,2.97
2023-05-13T14:45:43.748Z,5.03
2023-05-13T14:50:47.491Z,7.82
2023-05-13T14:55:51.755Z,5.80
2023-05-13T15:00:56.370Z,4.85
2023-05-13T15:06:00.097Z,2.60
2023-05-13T15:11:05.063Z,1.85
2023-05-13T15:16:08.808Z,1.70
2023-05-13T15:21:13.127Z,1.00
2023-05-13T15:26:16.803Z,1.92
2023-05-13T15:31:21.339Z,1.52
2023-05-13T15:36:25.670Z,1.48
2023-05-13T15:41:29.678Z,1.70
2023-05-13T15:46:33.852Z,2.17
2023-05-13T15:51:37.402Z,1.80
2023-05-13T15:56:42.323Z,2.38
2023-05-13T16:01:47.025Z,3.55
2023-05-13T16:06:51.202Z,2.53
2023-05-13T16:11:56.330Z,2.70
2023-05-13T16:17:01.003Z,2.72
2023-05-13T16:22:41.611Z,3.23
2023-05-13T16:27:45.052Z,4.18
2023-05-13T16:32:53.401Z,3.60
2023-05-13T16:37:57.254Z,3.00
2023-05-13T16:43:03.824Z,4.43
2023-05-13T16:48:08.552Z,4.35
2023-05-13T16:53:13.232Z,3.17
2023-05-13T16:58:17.544Z,2.88
2023-05-13T17:03:20.999Z,2.92
2023-05-13T17:08:24.762Z,4.07
2023-05-13T17:13:27.975Z,3.35
2023-05-13T17:18:31.015Z,4.20
2023-05-13T17:23:34.446Z,3.40
2023-05-13T17:28:40.557Z,3.47
2023-05-13T17:33:44.299Z,4.20
2023-05-13T17:38:49.957Z,4.15
2023-05-13T17:43:53.156Z,5.20
2023-05-13T17:48:56.410Z,4.35
2023-05-13T17:53:59.523Z,4.25
2023-05-13T17:59:02.694Z,6.25
2023-05-13T18:04:05.864Z,5.13
2023-05-13T18:09:09.031Z,5.22
2023-05-13T18:14:12.152Z,4.43
2023-05-13T18:19:15.254Z,5.18
2023-05-13T18:24:18.455Z,5.93
2023-05-13T18:29:21.551Z,5.20
2023-05-13T18:34:25.069Z,7.82
2023-05-13T18:39:28.163Z,5.97
2023-05-13T18:44:31.186Z,6.05
2023-05-13T18:49:34.395Z,6.95
2023-05-13T18:54:37.741Z,7.95
2023-05-13T18:59:41.406Z,8.27
2023-05-13T19:04:44.574Z,10.55
2023-05-13T19:09:48.663Z,9.07
2023-05-13T19:14:52.009Z,8.50
2023-05-13T19:19:55.549Z,8.68
2023-05-13T19:24:58.598Z,8.23
2023-05-13T19:30:02.101Z,7.05
2023-05-13T19:35:06.138Z,6.50
2023-05-13T19:40:09.747Z,6.85
2023-05-13T19:45:12.815Z,5.70
2023-05-13T19:50:16.314Z,5.68
2023-05-13T19:55:20.566Z,5.68
2023-05-13T20:00:24.100Z,4.80
2023-05-13T20:05:27.473Z,4.93
2023-05-13T20:10:30.999Z,4.72
2023-05-13T20:15:34.244Z,5.18
2023-05-13T20:20:37.678Z,3.53
2023-05-13T20:25:40.903Z,5.82
2023-05-13T20:30:43.928Z,4.35
2023-05-13T20:35:47.945Z,5.03
2023-05-13T20:40:51.236Z,4.50
2023-05-13T20:45:54.508Z,5.57
2023-05-13T20:51:06.162Z,4.63
2023-05-13T20:56:10.488Z,4.00
2023-05-13T21:01:13.892Z,4.15
2023-05-13T21:06:16.963Z,4.30
2023-05-13T21:11:20.084Z,3.92
2023-05-13T21:16:23.538Z,4.20
2023-05-13T21:21:26.781Z,4.10
2023-05-13T21:26:29.908Z,4.95
2023-05-13T21:31:33.047Z,4.68
2023-05-13T21:36:39.149Z,5.55
2023-05-13T21:41:42.358Z,3.80
2023-05-13T21:46:45.520Z,4.43
2023-05-13T21:51:49.027Z,4.03
2023-05-13T21:56:52.236Z,4.70
2023-05-13T22:01:55.578Z,4.10
2023-05-13T22:06:58.666Z,4.18
2023-05-13T22:12:02.322Z,4.93
2023-05-13T22:17:09.845Z,4.40
2023-05-13T22:22:13.549Z,3.78
2023-05-13T22:27:17.508Z,4.20
2023-05-13T22:32:20.744Z,5.25
2023-05-13T22:37:23.879Z,4.25
2023-05-13T22:42:27.638Z,4.25
2023-05-13T22:47:30.903Z,4.93
2023-05-13T22:52:34.127Z,4.60
2023-05-13T22:57:37.128Z,5.10
2023-05-13T23:02:40.357Z,4.38
2023-05-13T23:07:43.472Z,4.20
2023-05-13T23:12:46.609Z,4.05
2023-05-13T23:17:49.670Z,4.43
2023-05-13T23:22:52.749Z,4.75
2023-05-13T23:27:55.960Z,5.03
2023-05-13T23:32:59.318Z,4.22
2023-05-13T23:38:02.772Z,4.47
2023-05-13T23:43:06.000Z,4.28
2023-05-13T23:48:09.270Z,5.03
2023-05-13T23:53:12.582Z,4.32
2023-05-13T23:58:15.815Z,4.18
